createdAt,value
2023-05-21T00:00:43.445Z,13.82
2023-05-21T00:03:42.257Z,13.84
2023-05-21T00:06:27.949Z,13.86
2023-05-21T00:09:13.553Z,13.87
2023-05-21T00:11:59.164Z,13.88
2023-05-21T00:14:44.480Z,13.92
2023-05-21T00:17:29.793Z,13.95
2023-05-21T00:20:15.713Z,13.98
2023-05-21T00:23:06.833Z,13.99
2023-05-21T00:25:52.789Z,13.98
2023-05-21T00:28:38.245Z,13.99
2023-05-21T00:31:23.496Z,13.99
2023-05-21T00:34:08.597Z,13.97
2023-05-21T00:36:55.199Z,13.93
2023-05-21T00:39:43.644Z,13.89
2023-05-21T00:42:32.816Z,13.87
2023-05-21T00:45:18.949Z,13.85
2023-05-21T00:48:06.732Z,13.83
2023-05-21T00:50:55.245Z,13.79
2023-05-21T00:53:42.815Z,13.74
2023-05-21T00:56:28.605Z,13.69
2023-05-21T00:59:19.045Z,13.66
2023-05-21T01:02:12.323Z,13.65
2023-05-21T01:05:00.556Z,13.63
2023-05-21T01:07:46.121Z,13.59
2023-05-21T01:10:31.829Z,13.55
2023-05-21T01:13:20.337Z,13.49
2023-05-21T01:16:06.104Z,13.48
2023-05-21T01:18:54.004Z,13.47
2023-05-21T01:21:51.110Z,13.45
2023-05-21T01:24:37.340Z,13.42
2023-05-21T01:27:22.958Z,13.39
2023-05-21T01:30:08.988Z,13.39
2023-05-21T01:32:58.661Z,13.39
2023-05-21T01:35:51.083Z,13.39
2023-05-21T01:38:53.557Z,13.39
2023-05-21T01:41:44.450Z,13.37
2023-05-21T01:44:32.238Z,13.33
2023-05-21T01:47:18.933Z,13.29
2023-05-21T01:50:05.561Z,13.28
2023-05-21T01:53:02.571Z,13.28
2023-05-21T01:55:47.921Z,13.28
2023-05-21T01:58:33.443Z,13.26
2023-05-21T02:01:21.304Z,13.24
2023-05-21T02:04:08.774Z,13.22
2023-05-21T02:06:54.470Z,13.18
2023-05-21T02:09:40.684Z,13.16
2023-05-21T02:12:29.063Z,13.16
2023-05-21T02:15:19.259Z,13.15
2023-05-21T02:18:06.211Z,13.14
2023-05-21T02:20:52.267Z,13.11
2023-05-21T02:23:39.080Z,13.08
2023-05-21T02:26:26.814Z,13.04
2023-05-21T02:29:12.644Z,13.02
2023-05-21T02:31:57.920Z,13.02
2023-05-21T02:34:45.955Z,13.02
2023-05-21T02:37:37.832Z,13.00
2023-05-21T02:40:25.229Z,12.98
2023-05-21T02:43:10.461Z,12.95
2023-05-21T02:45:56.355Z,12.91
2023-05-21T02:51:44.284Z,12.89
2023-05-21T02:54:31.496Z,12.89
2023-05-21T02:57:18.354Z,12.89
2023-05-21T03:00:08.753Z,12.87
2023-05-21T03:02:54.684Z,12.83
2023-05-21T03:05:43.391Z,12.79
2023-05-21T03:08:28.974Z,12.75
2023-05-21T03:11:14.467Z,12.73
2023-05-21T03:14:00.082Z,12.74
2023-05-21T03:16:45.643Z,12.75
2023-05-21T03:19:41.437Z,12.75
2023-05-21T03:22:27.886Z,12.75
2023-05-21T03:25:17.667Z,12.75
2023-05-21T03:28:04.332Z,12.76
2023-05-21T03:30:51.599Z,12.78
2023-05-21T03:33:37.337Z,12.80
2023-05-21T03:36:22.961Z,12.83
2023-05-21T03:39:10.534Z,12.83
2023-05-21T03:42:00.562Z,12.84
2023-05-21T03:44:47.191Z,12.84
2023-05-21T03:47:33.799Z,12.86
2023-05-21T03:50:19.884Z,12.89
2023-05-21T03:53:05.743Z,12.93
2023-05-21T03:55:55.049Z,12.96
2023-05-21T03:58:42.473Z,12.98
2023-05-21T04:01:28.775Z,12.98
2023-05-21T04:04:14.659Z,13.01
2023-05-21T04:07:01.679Z,13.05
2023-05-21T04:09:47.022Z,13.09
2023-05-21T04:12:33.909Z,13.11
2023-05-21T04:15:19.383Z,13.14
2023-05-21T04:18:06.386Z,13.16
2023-05-21T04:20:53.520Z,13.20
2023-05-21T04:23:40.165Z,13.27
2023-05-21T04:26:26.009Z,13.33
2023-05-21T04:29:11.616Z,13.36
2023-05-21T04:31:57.376Z,13.40
2023-05-21T04:34:46.342Z,13.44
2023-05-21T04:37:35.423Z,13.49
2023-05-21T04:40:25.801Z,13.54
2023-05-21T04:43:12.917Z,13.60
2023-05-21T04:45:59.421Z,13.64
2023-05-21T04:48:48.297Z,13.67
2023-05-21T04:51:33.873Z,13.71
2023-05-21T04:54:20.022Z,13.76
2023-05-21T04:57:08.202Z,13.82
2023-05-21T04:59:54.442Z,13.90
2023-05-21T05:02:40.165Z,13.98
2023-05-21T05:05:26.687Z,14.03
2023-05-21T05:08:14.751Z,14.09
2023-05-21T05:11:03.578Z,14.15
2023-05-21T05:13:48.782Z,14.24
2023-05-21T05:16:35.725Z,14.33
2023-05-21T05:19:21.690Z,14.42
2023-05-21T05:22:10.840Z,14.49
2023-05-21T05:24:57.193Z,14.57
2023-05-21T05:27:42.496Z,14.67
2023-05-21T05:30:29.073Z,14.76
2023-05-21T05:33:14.916Z,14.85
2023-05-21T05:36:00.230Z,14.93
2023-05-21T05:38:45.668Z,15.01
2023-05-21T05:41:31.411Z,15.11
2023-05-21T05:44:16.725Z,15.22
2023-05-21T05:47:01.829Z,15.36
2023-05-21T05:49:47.517Z,15.48
2023-05-21T05:52:33.263Z,15.59
2023-05-21T05:55:18.541Z,15.70
2023-05-21T05:58:04.156Z,15.83
2023-05-21T06:00:50.576Z,15.98
2023-05-21T06:03:36.341Z,16.12
2023-05-21T06:06:21.978Z,16.26
2023-05-21T06:09:07.514Z,16.41
2023-05-21T06:11:52.758Z,16.58
2023-05-21T06:14:38.513Z,16.74
2023-05-21T06:17:24.454Z,16.88
2023-05-21T06:23:25.584Z,17.16
2023-05-21T06:29:15.485Z,17.41
2023-05-21T06:32:01.838Z,17.53
2023-05-21T06:34:47.451Z,17.69
2023-05-21T06:37:33.493Z,17.85
2023-05-21T06:40:18.724Z,18.01
2023-05-21T06:43:05.049Z,18.17
2023-05-21T06:45:50.359Z,18.34
2023-05-21T06:48:38.436Z,18.51
2023-05-21T06:51:23.939Z,18.70
2023-05-21T06:54:09.285Z,18.93
2023-05-21T06:56:54.771Z,19.20
2023-05-21T06:59:40.251Z,19.54
2023-05-21T07:02:25.974Z,19.89
2023-05-21T07:05:11.829Z,20.29
2023-05-21T07:07:57.390Z,20.76
2023-05-21T07:10:43.290Z,21.36
2023-05-21T07:13:29.584Z,22.18
2023-05-21T07:16:18.073Z,23.35
2023-05-21T07:19:03.826Z,24.79
2023-05-21T07:21:49.725Z,26.17
2023-05-21T07:24:35.201Z,27.31
2023-05-21T07:27:25.619Z,28.47
2023-05-21T07:30:12.100Z,29.21
2023-05-21T07:43:32.177Z,32.00
2023-05-21T07:53:24.771Z,34.76
2023-05-21T07:56:37.457Z,34.46
2023-05-21T08:00:30.727Z,32.85
2023-05-21T08:49:45.167Z,28.42
2023-05-21T08:52:34.649Z,28.39
2023-05-21T08:55:23.316Z,28.37
2023-05-21T08:58:09.952Z,28.37
2023-05-21T09:01:00.326Z,28.32
2023-05-21T09:03:51.694Z,28.26
2023-05-21T09:06:57.720Z,28.22
2023-05-21T09:09:59.583Z,28.27
2023-05-21T09:12:54.279Z,28.30
2023-05-21T09:15:41.866Z,28.34
2023-05-21T09:18:29.651Z,28.34
2023-05-21T09:21:26.808Z,28.36
2023-05-21T09:24:14.573Z,28.37
2023-05-21T09:27:00.560Z,28.38
2023-05-21T09:29:46.095Z,28.44
2023-05-21T09:32:31.979Z,28.49
2023-05-21T09:35:18.018Z,28.55
2023-05-21T09:44:27.013Z,28.88
2023-05-21T09:47:12.882Z,28.97
2023-05-21T09:49:58.523Z,29.09
2023-05-21T09:52:47.385Z,29.18
2023-05-21T09:55:36.440Z,29.26
2023-05-21T09:58:22.062Z,29.30
2023-05-21T10:01:12.552Z,29.37
2023-05-21T10:07:18.279Z,29.47
2023-05-21T10:10:07.825Z,29.50
2023-05-21T10:13:07.173Z,29.52
2023-05-21T10:16:02.908Z,29.61
2023-05-21T10:18:53.813Z,29.69
2023-05-21T10:21:41.635Z,29.78
2023-05-21T10:24:31.219Z,29.83
2023-05-21T10:27:21.343Z,29.86
